地図

経路データ

SID SEASON NUMBER BASIN SUBBASIN NAME ISO_TIME NATURE LAT LON WMO_WIND WMO_PRES WMO_AGENCY TRACK_TYPE DIST2LAND LANDFALL IFLAG USA_AGENCY USA_ATCF_ID USA_LAT USA_LON USA_RECORD USA_STATUS USA_WIND USA_PRES USA_SSHS USA_R34_NE USA_R34_SE USA_R34_SW USA_R34_NW USA_R50_NE USA_R50_SE USA_R50_SW USA_R50_NW USA_R64_NE USA_R64_SE USA_R64_SW USA_R64_NW USA_POCI USA_ROCI USA_RMW USA_EYE TOKYO_LAT TOKYO_LON TOKYO_GRADE TOKYO_WIND TOKYO_PRES TOKYO_R50_DIR TOKYO_R50_LONG TOKYO_R50_SHORT TOKYO_R30_DIR TOKYO_R30_LONG TOKYO_R30_SHORT TOKYO_LAND CMA_LAT CMA_LON CMA_CAT CMA_WIND CMA_PRES HKO_LAT HKO_LON HKO_CAT HKO_WIND HKO_PRES NEWDELHI_LAT NEWDELHI_LON NEWDELHI_GRADE NEWDELHI_WIND NEWDELHI_PRES NEWDELHI_CI NEWDELHI_DP NEWDELHI_POCI REUNION_LAT REUNION_LON REUNION_TYPE REUNION_WIND REUNION_PRES REUNION_TNUM REUNION_CI REUNION_RMW REUNION_R34_NE REUNION_R34_SE REUNION_R34_SW REUNION_R34_NW REUNION_R50_NE REUNION_R50_SE REUNION_R50_SW REUNION_R50_NW REUNION_R64_NE REUNION_R64_SE REUNION_R64_SW REUNION_R64_NW BOM_LAT BOM_LON BOM_TYPE BOM_WIND BOM_PRES BOM_TNUM BOM_CI BOM_RMW BOM_R34_NE BOM_R34_SE BOM_R34_SW BOM_R34_NW BOM_R50_NE BOM_R50_SE BOM_R50_SW BOM_R50_NW BOM_R64_NE BOM_R64_SE BOM_R64_SW BOM_R64_NW BOM_ROCI BOM_POCI BOM_EYE BOM_POS_METHOD BOM_PRES_METHOD NADI_LAT NADI_LON NADI_CAT NADI_WIND NADI_PRES WELLINGTON_LAT WELLINGTON_LON WELLINGTON_WIND WELLINGTON_PRES DS824_LAT DS824_LON DS824_STAGE DS824_WIND DS824_PRES TD9636_LAT TD9636_LON TD9636_STAGE TD9636_WIND TD9636_PRES TD9635_LAT TD9635_LON TD9635_WIND TD9635_PRES TD9635_ROCI NEUMANN_LAT NEUMANN_LON NEUMANN_CLASS NEUMANN_WIND NEUMANN_PRES MLC_LAT MLC_LON MLC_CLASS MLC_WIND MLC_PRES USA_GUST BOM_GUST BOM_GUST_PER REUNION_GUST REUNION_GUST_PER USA_SEAHGT USA_SEARAD_NE USA_SEARAD_SE USA_SEARAD_SW USA_SEARAD_NW STORM_SPEED STORM_DIR
1981363S10079 1982 120 SI MM CLARISSEE 1981-12-29 00:00:00 TS -9.50000 78.8000 main 1737 1737 O_________O_O_ jtwc_sh SH071982 -9.50000 78.8000 20 -1 -9.50000 78.8000 1 20 -9.50000 78.8000 TC 20 2 241
1981363S10079 1982 120 SI MM CLARISSEE 1981-12-29 03:00:00 TS -9.54635 78.7061 main 1738 1738 P_________P_P_ SH071982 -9.53751 78.6975 20 -1 -9.56403 78.7234 1 20 -9.53751 78.6975 TC 20 2 270
1981363S10079 1982 120 SI MM CLARISSEE 1981-12-29 06:00:00 TS -9.49973 78.6012 20 reunion main 1739 1739 O____O____P_O_ jtwc_sh SH071982 -9.60000 78.6000 20 -1 -8.50000 78.5000 2 20 1.00000 1.00000 -9.63244 78.6374 1 20 -9.60000 78.6000 TC 20 2 264
1981363S10079 1982 120 SI MM CLARISSEE 1981-12-29 09:00:00 TS -9.56454 78.5379 main 1752 1752 P____P____P_P_ SH071982 -9.69999 78.5075 20 -1 -8.73252 78.6699 2 -9.70964 78.5328 1 20 -9.69999 78.5075 TC 20 2 224
1981363S10079 1982 120 SI MM CLARISSEE 1981-12-29 12:00:00 TS -9.62000 78.4800 reunion main 1752 1752 O____O____O_O_ jtwc_sh SH071982 -9.80000 78.4000 20 -1 -8.90000 78.8000 99 9.90000 -9.80000 78.4000 1 20 -9.80000 78.4000 TC 20 2 238
1981363S10079 1982 120 SI MM CLARISSEE 1981-12-29 15:00:00 TS -9.64525 78.4040 main 1753 1753 P____P____P_P_ SH071982 -9.85000 78.2575 20 -1 -8.97749 78.8650 99 -9.90350 78.2360 1 21 -9.85000 78.2575 TC 20 2 240
1981363S10079 1982 120 SI MM CLARISSEE 1981-12-29 18:00:00 TS -9.72565 78.2906 reunion main 1766 1766 O____O____P_O_ jtwc_sh SH071982 -9.90000 78.1000 20 -1 -9.10000 78.9000 99 9.90000 -10.0026 78.0626 1 22 -9.90000 78.1000 TC 20 3 221
1981363S10079 1982 120 SI MM CLARISSEE 1981-12-29 21:00:00 TS -9.89260 78.1838 main 1790 1790 P____P____P_P_ SH071982 -10.0225 77.9275 22 -1 -9.45000 78.9724 99 -10.0754 77.9079 1 23 -10.0225 77.9275 TC 22 4 212
1981363S10079 1982 120 SI MM CLARISSEE 1981-12-30 00:00:00 TS -10.0250 78.1000 reunion main 1803 1803 O____O____O_O_ jtwc_sh SH071982 -10.1000 77.8000 25 -1 -9.80000 79.0000 99 9.90000 -10.1000 77.8000 1 25 -10.1000 77.8000 TC 25 2 228
1981363S10079 1982 120 SI MM CLARISSEE 1981-12-30 03:00:00 TS -10.0016 78.0648 main 1803 1791 P____P____P_P_ SH071982 -10.0300 77.7700 25 -1 -9.94495 78.9525 99 -10.0015 77.7666 1 25 -10.0300 77.7700 TC 25 1 331
1981363S10079 1982 120 SI MM CLARISSEE 1981-12-30 06:00:00 TS -9.91561 78.0457 20 1003 reunion main 1793 1782 O____O____P_O_ jtwc_sh SH071982 -9.90000 77.8000 25 -1 -10.0000 78.8000 2 20 1003 1.50000 1.50000 -9.86245 77.7826 1 25 -9.90000 77.8000 TC 25 2 343
1981363S10079 1982 120 SI MM CLARISSEE 1981-12-30 09:00:00 TS -9.83681 78.0025 main 1782 1782 P____P____P_P_ SH071982 -9.76250 77.8350 25 -1 -10.0801 78.5075 2 -9.74216 77.8323 1 25 -9.76250 77.8350 TC 25 1 328
1981363S10079 1982 120 SI MM CLARISSEE 1981-12-30 12:00:00 TS -9.80000 77.9750 reunion main 1782 1782 O____O____O_O_ jtwc_sh SH071982 -9.70000 77.9000 25 -1 -10.1000 78.2000 99 9.90000 -9.70000 77.9000 1 25 -9.70000 77.9000 TC 25 0 0
1981363S10079 1982 120 SI MM CLARISSEE 1981-12-30 15:00:00 TS -9.86311 78.0097 main 1793 1793 P____P____P_P_ SH071982 -9.79751 78.0000 25 -1 -10.0599 78.0501 99 -9.79753 77.9889 1 26 -9.79751 78.0000 TC 25 2 160
1981363S10079 1982 120 SI MM CLARISSEE 1981-12-30 18:00:00 TS -9.97001 78.0468 reunion main 1804 1804 O____O____P_O_ jtwc_sh SH071982 -10.0000 78.1000 25 -1 -9.90000 77.9000 99 9.90000 -9.98004 78.0872 1 27 -10.0000 78.1000 TC 25 2 172
1981363S10079 1982 120 SI MM CLARISSEE 1981-12-30 21:00:00 TS -10.0550 78.0316 main 1815 1815 P____P____P_P_ SH071982 -10.2275 78.1799 27 -1 -9.54257 77.5998 99 -10.2225 78.1669 1 28 -10.2275 78.1799 TC 27 2 199
1981363S10079 1982 120 SI MM CLARISSEE 1981-12-31 00:00:00 TS -10.1750 77.9750 reunion main 1826 1826 O____O____O_O_ jtwc_sh SH071982 -10.5000 78.2000 30 -1 -9.20000 77.3000 99 9.90000 -10.5000 78.2000 1 30 -10.5000 78.2000 TC 30 3 206
1981363S10079 1982 120 SI MM CLARISSEE 1981-12-31 03:00:00 TS -10.3498 77.8834 main 1839 1839 P____P____P_P_ SH071982 -10.7925 78.1225 30 -1 -9.02243 77.1499 99 -10.7916 78.1384 1 31 -10.7925 78.1225 TC 30 5 206
1981363S10079 1982 120 SI MM CLARISSEE 1981-12-31 06:00:00 TS -10.6019 77.7576 reunion main 1874 1874 O____O____P_O_ jtwc_sh SH071982 -11.1000 78.0000 30 -1 -9.10000 77.0000 99 9.90000 -11.1076 78.0304 1 32 -11.1000 78.0000 TC 30 7 207
1981363S10079 1982 120 SI MM CLARISSEE 1981-12-31 09:00:00 TS -10.9343 77.5794 main 1911 1911 P____P____P_P_ SH071982 -11.4150 77.8850 32 -1 -9.48762 76.6406 99 -11.4197 77.9072 1 33 -11.4150 77.8850 TC 32 8 203
1981363S10079 1982 120 SI MM CLARISSEE 1981-12-31 12:00:00 TS -11.3000 77.4500 reunion main 1957 1957 O____O____O_O_ jtwc_sh SH071982 -11.7000 77.8000 35 0 -10.1000 76.4000 99 9.90000 -11.7000 77.8000 2 35 -11.7000 77.8000 TC 35 7 189
1981363S10079 1982 120 SI MM CLARISSEE 1981-12-31 15:00:00 TS -11.6306 77.4652 main 1990 1990 P____P____P_P_ SH071982 -11.9225 77.7924 35 0 -10.7624 76.5225 99 -11.9150 77.7533 2 36 -11.9225 77.7924 TC 35 7 171
1981363S10079 1982 120 SI MM CLARISSEE 1981-12-31 18:00:00 TS -11.9487 77.5568 reunion main 2021 2021 O____O____P_O_ jtwc_sh SH071982 -12.1000 77.8000 35 0 -11.5000 76.9000 99 9.90000 -12.0950 77.7273 2 37 -12.1000 77.8000 TC 35 7 161
1981363S10079 1982 120 SI MM CLARISSEE 1981-12-31 21:00:00 TS -12.2432 77.6786 main 2053 2053 P____P____P_P_ SH071982 -12.2575 77.7575 37 0 -12.2055 77.4868 99 -12.2525 77.7127 2 38 -12.2575 77.7575 TC 37 6 160
1981363S10079 1982 120 SI MM CLARISSEE 1982-01-01 00:00:00 TS -12.5500 77.7750 reunion main 2084 2095 O____O____O_O_ jtwc_sh SH071982 -12.4000 77.7000 40 0 -13.0000 78.0000 99 9.90000 -12.4000 77.7000 2 40 -12.4000 77.7000 TC 40 7 173
1981363S10079 1982 120 SI MM CLARISSEE 1982-01-01 03:00:00 TS -12.9453 77.7636 main 2128 2128 P____P____P_P_ SH071982 -12.5500 77.6425 40 0 -14.1198 78.0983 99 -12.5612 77.6709 2 41 -12.5500 77.6425 TC 40 7 185
1981363S10079 1982 120 SI MM CLARISSEE 1982-01-01 06:00:00 TS -13.2788 77.7106 28 997 reunion main 2174 2174 O____O____P_O_ jtwc_sh SH071982 -12.7000 77.6000 40 0 -15.0000 78.0000 2 28 997 2.50000 2.50000 -12.7150 77.6425 2 42 -12.7000 77.6000 TC 40 5 191
1981363S10079 1982 120 SI MM CLARISSEE 1982-01-01 09:00:00 TS -13.4228 77.6757 main 2185 2185 P____P____P_P_ SH071982 -12.8500 77.5925 42 0 -15.1300 77.8999 2 -12.8612 77.6178 2 43 -12.8500 77.5925 TC 42 2 197
1981363S10079 1982 120 SI MM CLARISSEE 1982-01-01 12:00:00 TS -13.4750 77.6500 reunion main 2197 2197 O____O____O_O_ jtwc_sh SH071982 -13.0000 77.6000 45 0 -14.9000 77.8000 99 9.90000 -13.0000 77.6000 2 45 -13.0000 77.6000 TC 45 1 197
1981363S10079 1982 120 SI MM CLARISSEE 1982-01-01 15:00:00 TS -13.5426 77.6444 main 2198 2198 P____P____P_P_ SH071982 -13.1575 77.6000 45 0 -14.7150 77.7850 99 -13.1403 77.5928 2 43 -13.1575 77.6000 TC 45 1 186
1981363S10079 1982 120 SI MM CLARISSEE 1982-01-01 18:00:00 TS -13.5931 77.6481 reunion main 2209 2208 O____O____P_O_ jtwc_sh SH071982 -13.3000 77.6000 45 0 -14.5000 77.8000 99 9.90000 -13.2725 77.5925 2 42 -13.3000 77.6000 TC 45 1 164
1981363S10079 1982 120 SI MM CLARISSEE 1982-01-01 21:00:00 TS -13.6359 77.6565 main 2208 2208 P____P____P_P_ SH071982 -13.4075 77.6000 42 0 -14.3350 77.8300 99 -13.3934 77.5959 2 41 -13.4075 77.6000 TC 42 1 0
1981363S10079 1982 120 SI MM CLARISSEE 1982-01-02 00:00:00 TS -13.6750 77.6500 reunion main 2219 2219 O____O____O_O_ jtwc_sh SH071982 -13.5000 77.6000 40 0 -14.2000 77.8000 99 9.90000 -13.5000 77.6000 2 40 -13.5000 77.6000 TC 40 1 214
1981363S10079 1982 120 SI MM CLARISSEE 1982-01-02 03:00:00 TS -13.7166 77.6029 main 2220 2220 P____P____P_P_ SH071982 -13.6075 77.6000 40 0 -14.0701 77.6074 99 -13.5812 77.6040 2 40 -13.6075 77.6000 TC 40 1 228
1981363S10079 1982 120 SI MM CLARISSEE 1982-01-02 06:00:00 TS -13.7625 77.5519 28 997 reunion main 2225 2215 O____O____P_O_ jtwc_sh SH071982 -13.7000 77.6000 40 0 -14.0000 77.4000 2 28 997 2.50000 2.50000 -13.6500 77.6075 2 40 -13.7000 77.6000 TC 40 1 217
1981363S10079 1982 120 SI MM CLARISSEE 1982-01-02 09:00:00 TS -13.8059 77.5337 main 2215 2211 P____P____P_P_ SH071982 -13.7500 77.6000 40 0 -14.0050 77.3275 2 -13.7187 77.6072 2 40 -13.7500 77.6000 TC 40 1 0
1981363S10079 1982 120 SI MM CLARISSEE 1982-01-02 12:00:00 TS -13.8750 77.5250 reunion main 2211 2206 O____O____O_O_ jtwc_sh SH071982 -13.8000 77.6000 40 0 -14.1000 77.3000 99 9.90000 -13.8000 77.6000 2 40 -13.8000 77.6000 TC 40 2 0
1981363S10079 1982 120 SI MM CLARISSEE 1982-01-02 15:00:00 TS -13.9963 77.5138 main 2206 2202 P____P____P_P_ SH071982 -13.8850 77.6075 40 0 -14.2925 77.2500 99 -13.9228 77.5903 2 38 -13.8850 77.6075 TC 40 3 190
1981363S10079 1982 120 SI MM CLARISSEE 1982-01-02 18:00:00 TS -14.1394 77.4931 reunion main 2202 2194 O____O____P_O_ jtwc_sh SH071982 -14.0000 77.6000 40 0 -14.5000 77.2000 99 9.90000 -14.0575 77.5725 2 37 -14.0000 77.6000 TC 40 3 192
1981363S10079 1982 120 SI MM CLARISSEE 1982-01-02 21:00:00 TS -14.2777 77.4540 main 2194 2180 P____P____P_P_ SH071982 -14.1500 77.5575 37 0 -14.6225 77.1575 99 -14.1884 77.5434 2 36 -14.1500 77.5575 TC 37 3 198
1981363S10079 1982 120 SI MM CLARISSEE 1982-01-03 00:00:00 TS -14.4000 77.4000 reunion main 2180 2166 O____O____O_O_ jtwc_sh SH071982 -14.3000 77.5000 35 0 -14.7000 77.1000 99 9.90000 -14.3000 77.5000 2 35 -14.3000 77.5000 TC 35 2 206
1981363S10079 1982 120 SI MM CLARISSEE 1982-01-03 03:00:00 TS -14.4994 77.3417 main 2166 2163 P____P____P_P_ SH071982 -14.4225 77.4575 35 0 -14.7650 77.0000 99 -14.3878 77.4516 2 33 -14.4225 77.4575 TC 35 2 217
1981363S10079 1982 120 SI MM CLARISSEE 1982-01-03 06:00:00 TS -14.5631 77.2719 24 1000 reunion main 2163 2152 O____O____P_O_ jtwc_sh SH071982 -14.5000 77.4000 35 0 -14.8000 76.9000 2 24 1000 2.00000 2.00000 -14.4525 77.3876 2 32 -14.5000 77.4000 TC 35 2 240
1981363S10079 1982 120 SI MM CLARISSEE 1982-01-03 09:00:00 TS -14.5840 77.1962 main 2152 2142 P____P____P_P_ SH071982 -14.5225 77.3150 32 -1 -14.8000 76.8500 2 -14.4909 77.3047 2 31 -14.5225 77.3150 TC 32 2 266
1981363S10079 1982 120 SI MM CLARISSEE 1982-01-03 12:00:00 TS -14.5750 77.1000 reunion main 2142 2132 O____O____O_O_ jtwc_sh SH071982 -14.5000 77.2000 30 -1 -14.8000 76.8000 99 9.90000 -14.5000 77.2000 1 30 -14.5000 77.2000 TC 30 2 276
1981363S10079 1982 120 SI MM CLARISSEE 1982-01-03 15:00:00 TS -14.5599 76.9745 main 2132 2116 P____P____P_P_ SH071982 -14.4575 77.0575 30 -1 -14.8500 76.7075 99 -14.4747 77.0755 1 30 -14.4575 77.0575 TC 30 3 280
1981363S10079 1982 120 SI MM CLARISSEE 1982-01-03 18:00:00 TS -14.5306 76.8325 reunion main 2116 2106 O____O____P_O_ jtwc_sh SH071982 -14.4000 76.9000 30 -1 -14.9000 76.6000 99 9.90000 -14.4225 76.9299 1 30 -14.4000 76.9000 TC 30 3 284
1981363S10079 1982 120 SI MM CLARISSEE 1982-01-03 21:00:00 TS -14.4916 76.6923 main 2106 2096 P____P____P_P_ SH071982 -14.3500 76.7500 30 -1 -14.9075 76.5000 99 -14.3591 76.7693 1 30 -14.3500 76.7500 TC 30 3 286
1981363S10079 1982 120 SI MM CLARISSEE 1982-01-04 00:00:00 TS -14.4500 76.5500 reunion main 2100 2080 O____O____O_O_ jtwc_sh SH071982 -14.3000 76.6000 30 -1 -14.9000 76.4000 99 9.90000 -14.3000 76.6000 1 30 -14.3000 76.6000 TC 30 3 287
1981363S10079 1982 120 SI MM CLARISSEE 1982-01-04 03:00:00 TS -14.4106 76.4181 main 2080 2070 P____P____P_P_ SH071982 -14.2425 76.4575 30 -1 -14.8999 76.3300 99 -14.2575 76.4272 1 28 -14.2425 76.4575 TC 30 3 276
1981363S10079 1982 120 SI MM CLARISSEE 1982-01-04 06:00:00 TS -14.4223 76.2583 20 1003 reunion main 2070 2035 O____O____P_O_ jtwc_sh SH071982 -14.2000 76.3000 30 -1 -14.9000 76.2000 2 20 1003 1.50000 1.50000 -14.2301 76.2526 1 27 -14.2000 76.3000 TC 30 4 261
1981363S10079 1982 120 SI MM CLARISSEE 1982-01-04 09:00:00 TS -14.4726 76.0313 main 2035 2001 P____P____P_P_ SH071982 -14.1900 76.1100 27 -1 -14.8850 75.9299 2 -14.2126 76.0766 1 26 -14.1900 76.1100 TC 27 5 251
1981363S10079 1982 120 SI MM CLARISSEE 1982-01-04 12:00:00 TS -14.6000 75.7286 reunion main 2001 1945 O____O____O_O_ jtwc_sh SH071982 -14.2000 75.9000 25 -1 -14.9000 75.6000 99 9.90000 -14.2000 75.9000 1 25 -14.2000 75.9000 TC 25 9 235
1981363S10079 1982 120 SI MM CLARISSEE 1982-01-04 15:00:00 NR -14.9700 75.3000 main 1945 1911 _____P________ SH071982 -1 -14.9700 75.3000 99 1 TC 9 235
1981363S10079 1982 120 SI MM CLARISSEE 1982-01-04 18:00:00 NR -15.1000 75.0000 reunion main 1911 1873 _____O________ -1 -15.1000 75.0000 99 9.90000 1 7 243
1981363S10079 1982 120 SI MM CLARISSEE 1982-01-04 21:00:00 NR -15.2775 74.6850 main 1873 1835 _____P________ -1 -15.2775 74.6850 99 1 7 235
1981363S10079 1982 120 SI MM CLARISSEE 1982-01-05 00:00:00 NR -15.5000 74.4000 reunion main 1835 1804 _____O________ -1 -15.5000 74.4000 99 9.90000 7 222
1981363S10079 1982 120 SI MM CLARISSEE 1982-01-05 03:00:00 NR -15.7647 74.2299 main 1804 1777 _____P________ -1 -15.7647 74.2299 99 6 218
1981363S10079 1982 120 SI MM CLARISSEE 1982-01-05 06:00:00 TS -16.0000 74.0000 20 reunion main 1777 1733 _____O________ -1 -16.0000 74.0000 2 20 1.00000 1.00000 7 243
1981363S10079 1982 120 SI MM CLARISSEE 1982-01-05 09:00:00 TS -16.1001 73.5447 main 1722 1668 _____P________ -1 -16.1001 73.5447 2 10 258
1981363S10079 1982 120 SI MM CLARISSEE 1982-01-05 12:00:00 NR -16.2000 73.0000 reunion main 1668 1617 _____O________ -1 -16.2000 73.0000 99 9.90000 11 248
1981363S10079 1982 120 SI MM CLARISSEE 1982-01-05 15:00:00 NR -16.4872 72.5230 main 1607 1550 _____P________ -1 -16.4872 72.5230 99 11 242
1981363S10079 1982 120 SI MM CLARISSEE 1982-01-05 18:00:00 NR -16.7000 72.0000 reunion main 1550 1492 _____O________ -1 -16.7000 72.0000 99 9.90000 11 263
1981363S10079 1982 120 SI MM CLARISSEE 1982-01-05 21:00:00 NR -16.6172 71.4022 main 1492 1429 _____P________ -1 -16.6172 71.4022 99 13 284
1981363S10079 1982 120 SI MM CLARISSEE 1982-01-06 00:00:00 NR -16.4000 70.7000 reunion main 1429 1357 _____O________ -1 -16.4000 70.7000 99 9.90000 16 286
1981363S10079 1982 120 SI MM CLARISSEE 1982-01-06 03:00:00 NR -16.1857 69.8121 main 1347 1277 _____P________ -1 -16.1857 69.8121 99 17 284
1981363S10079 1982 120 SI MM CLARISSEE 1982-01-06 06:00:00 TS -16.0000 69.0000 20 1003 reunion main 1277 1242 _____O________ -1 -16.0000 69.0000 2 20 1003 1.50000 1.50000 12 282
1981363S10079 1982 120 SI MM CLARISSEE 1982-01-06 09:00:00 TS -15.9343 68.5479 main 1233 1204 _____P________ -1 -15.9343 68.5479 2 8 277
1981363S10079 1982 120 SI MM CLARISSEE 1982-01-06 12:00:00 NR -15.9000 68.2000 reunion main 1204 1161 _____O________ -1 -15.9000 68.2000 99 9.90000 8 278
1981363S10079 1982 120 SI MM CLARISSEE 1982-01-06 15:00:00 NR -15.8150 67.7150 main 1161 1119 _____P________ -1 -15.8150 67.7150 99 10 282
1981363S10079 1982 120 SI MM CLARISSEE 1982-01-06 18:00:00 NR -15.7000 67.2000 reunion main 1119 1086 _____O________ -1 -15.7000 67.2000 99 9.90000 10 287
1981363S10079 1982 120 SI MM CLARISSEE 1982-01-06 21:00:00 NR -15.5344 66.7599 main 1092 1042 _____P________ -1 -15.5344 66.7599 99 10 287
1981363S10079 1982 120 SI MM CLARISSEE 1982-01-07 00:00:00 NR -15.4000 66.2000 reunion main 1042 970 _____O________ -1 -15.4000 66.2000 99 9.90000 13 277
1981363S10079 1982 120 SI MM CLARISSEE 1982-01-07 03:00:00 NR -15.3688 65.3802 main 970 891 _____P________ -1 -15.3688 65.3802 99 17 270
1981363S10079 1982 120 SI MM CLARISSEE 1982-01-07 06:00:00 TS -15.4000 64.4000 reunion main 883 _____O________ -1 -15.4000 64.4000 2 9.90000 19 268

IBTrACS Databaseについて

本データベースは、米国NOAAが公開する1842年以降の世界の熱帯低気圧のベストトラックデータアーカイブInternational Best Track Archive for Climate Stewardship (IBTrACS)を、ウェブで閲覧しやすい形式に変換したものです。

最終更新日:2021-10-25